createdAt,value
2018-09-13T00:00:59.634Z,7.63
2018-09-13T00:03:28.349Z,8.07
2018-09-13T00:05:57.538Z,8.43
2018-09-13T00:08:26.355Z,7.83
2018-09-13T00:10:55.017Z,7.77
2018-09-13T00:13:23.603Z,7.80
2018-09-13T00:15:52.672Z,9.23
2018-09-13T00:18:21.877Z,9.07
2018-09-13T00:20:51.286Z,8.73
2018-09-13T00:23:19.874Z,8.87
2018-09-13T00:25:55.150Z,9.63
2018-09-13T00:28:24.726Z,10.07
2018-09-13T00:30:54.154Z,11.23
2018-09-13T00:33:22.811Z,10.27
2018-09-13T00:35:51.508Z,10.90
2018-09-13T00:38:20.129Z,11.00
2018-09-13T00:40:55.295Z,11.97
2018-09-13T00:43:23.916Z,10.73
2018-09-13T00:45:52.516Z,9.93
2018-09-13T00:48:21.123Z,10.27
2018-09-13T00:50:49.807Z,12.33
2018-09-13T00:53:18.284Z,11.77
2018-09-13T00:55:46.768Z,12.13
2018-09-13T00:58:15.966Z,12.40
2018-09-13T01:00:45.004Z,13.70
2018-09-13T01:03:13.458Z,13.53
2018-09-13T01:05:42.104Z,12.23
2018-09-13T01:08:10.628Z,12.27
2018-09-13T01:10:39.171Z,13.87
2018-09-13T01:13:07.737Z,12.87
2018-09-13T01:15:36.399Z,12.47
2018-09-13T01:18:04.954Z,12.47
2018-09-13T01:20:33.517Z,12.27
2018-09-13T01:23:03.230Z,12.10
2018-09-13T01:25:31.682Z,13.87
2018-09-13T01:28:00.200Z,15.03
2018-09-13T01:30:31.929Z,14.93
2018-09-13T01:33:00.472Z,16.90
2018-09-13T01:35:28.918Z,17.30
2018-09-13T01:37:57.552Z,15.47
2018-09-13T01:40:26.034Z,15.17
2018-09-13T01:42:54.940Z,15.40
2018-09-13T01:45:24.089Z,14.23
2018-09-13T01:47:53.264Z,14.57
2018-09-13T01:50:21.869Z,13.43
2018-09-13T01:52:50.468Z,14.77
2018-09-13T01:55:18.973Z,15.57
2018-09-13T01:57:47.411Z,18.27
2018-09-13T02:00:16.024Z,16.30
2018-09-13T02:02:44.552Z,15.77
2018-09-13T02:05:13.241Z,14.47
2018-09-13T02:07:42.070Z,14.60
2018-09-13T02:10:10.678Z,13.20
2018-09-13T02:12:39.311Z,16.13
2018-09-13T02:15:08.026Z,18.00
2018-09-13T02:17:36.625Z,18.73
2018-09-13T02:20:05.137Z,16.13
2018-09-13T02:22:33.763Z,116.03
2018-09-13T02:25:02.271Z,23.53
2018-09-13T02:27:30.733Z,50.80
2018-09-13T02:29:59.197Z,22.27
2018-09-13T02:32:27.728Z,19.23
2018-09-13T02:34:56.442Z,19.43
2018-09-13T02:37:25.056Z,16.07
2018-09-13T02:39:53.759Z,14.93
2018-09-13T02:42:22.368Z,15.60
2018-09-13T02:44:50.855Z,15.30
2018-09-13T02:47:19.339Z,16.43
2018-09-13T02:49:48.019Z,15.83
2018-09-13T02:52:16.628Z,16.10
2018-09-13T02:54:45.180Z,17.13
2018-09-13T02:57:13.813Z,16.60
2018-09-13T02:59:42.308Z,18.13
2018-09-13T03:02:10.924Z,18.80
2018-09-13T03:04:39.440Z,16.70
2018-09-13T03:07:08.419Z,17.20
2018-09-13T03:09:36.893Z,17.47
2018-09-13T03:12:05.371Z,17.80
2018-09-13T03:14:33.868Z,16.93
2018-09-13T03:17:02.274Z,17.13
2018-09-13T03:19:30.836Z,19.17
2018-09-13T03:21:59.487Z,17.40
2018-09-13T03:24:27.996Z,18.73
2018-09-13T03:26:56.568Z,18.23
2018-09-13T03:29:25.165Z,18.47
2018-09-13T03:31:53.619Z,19.00
2018-09-13T03:34:22.273Z,19.77
2018-09-13T03:36:50.852Z,19.07
2018-09-13T03:39:19.359Z,18.70
2018-09-13T03:41:47.821Z,18.33
2018-09-13T03:44:16.353Z,19.50
2018-09-13T03:46:44.816Z,19.10
2018-09-13T03:49:13.261Z,19.20
2018-09-13T03:51:41.689Z,18.73
2018-09-13T03:54:10.867Z,20.47
2018-09-13T03:56:39.996Z,18.33
2018-09-13T03:59:08.882Z,19.40
2018-09-13T04:01:37.437Z,20.23
2018-09-13T04:04:06.128Z,20.23
2018-09-13T04:06:34.584Z,19.73
2018-09-13T04:09:03.389Z,20.47
2018-09-13T04:11:31.812Z,19.37
2018-09-13T04:14:01.082Z,19.37
2018-09-13T04:16:29.812Z,20.23
2018-09-13T04:18:58.332Z,19.37
2018-09-13T04:21:26.733Z,19.27
2018-09-13T04:23:55.538Z,21.57
2018-09-13T04:26:24.003Z,20.70
2018-09-13T04:28:52.981Z,21.47
2018-09-13T04:31:21.565Z,21.27
2018-09-13T04:33:50.024Z,22.43
2018-09-13T04:36:18.576Z,21.17
2018-09-13T04:38:48.063Z,21.70
2018-09-13T04:41:16.721Z,20.83
2018-09-13T04:43:45.218Z,22.20
2018-09-13T04:46:13.685Z,23.90
2018-09-13T04:48:42.304Z,25.23
2018-09-13T04:51:15.082Z,25.30
2018-09-13T04:53:43.548Z,24.70
2018-09-13T04:56:13.172Z,25.13
2018-09-13T04:58:42.635Z,24.80
2018-09-13T05:01:11.219Z,24.70
2018-09-13T05:03:39.834Z,25.20
2018-09-13T05:06:15.352Z,24.00
2018-09-13T05:08:44.388Z,27.07
2018-09-13T05:11:12.923Z,24.10
2018-09-13T05:13:41.472Z,24.97
2018-09-13T05:16:10.468Z,25.83
2018-09-13T05:18:38.903Z,26.20
2018-09-13T05:21:07.486Z,27.13
2018-09-13T05:23:35.953Z,25.87
2018-09-13T05:26:04.653Z,26.57
2018-09-13T05:28:33.260Z,28.53
2018-09-13T05:31:01.939Z,25.97
2018-09-13T05:33:30.451Z,27.80
2018-09-13T05:35:59.016Z,24.33
2018-09-13T05:38:27.645Z,25.37
2018-09-13T05:40:56.187Z,23.73
2018-09-13T05:43:24.903Z,22.27
2018-09-13T05:45:54.201Z,22.77
2018-09-13T05:48:22.923Z,23.57
2018-09-13T05:50:51.366Z,22.47
2018-09-13T05:53:20.113Z,24.30
2018-09-13T05:55:48.560Z,23.53
2018-09-13T05:58:17.124Z,23.33
2018-09-13T06:00:45.765Z,24.30
2018-09-13T06:03:14.394Z,23.67
2018-09-13T06:05:42.984Z,25.47
2018-09-13T06:08:11.481Z,24.10
2018-09-13T06:10:39.926Z,27.50
2018-09-13T06:13:08.673Z,23.77
2018-09-13T06:15:37.223Z,48.97
2018-09-13T06:18:05.893Z,25.10
2018-09-13T06:20:34.509Z,27.00
2018-09-13T06:23:03.084Z,27.40
2018-09-13T06:25:31.554Z,32.03
2018-09-13T06:28:00.658Z,27.27
2018-09-13T06:30:35.763Z,27.87
2018-09-13T06:33:09.656Z,104.50
2018-09-13T06:35:38.487Z,28.53
2018-09-13T06:38:10.588Z,28.07
2018-09-13T06:40:39.820Z,28.50
2018-09-13T06:43:14.995Z,29.60
2018-09-13T06:45:44.557Z,28.30
2018-09-13T06:48:13.584Z,27.17
2018-09-13T06:50:44.176Z,28.33
2018-09-13T06:53:13.108Z,36.37
2018-09-13T06:55:41.831Z,31.00
2018-09-13T06:58:11.653Z,27.97
2018-09-13T07:00:41.053Z,28.77
2018-09-13T07:03:09.652Z,28.73
2018-09-13T07:05:38.289Z,28.60
2018-09-13T07:08:07.075Z,28.47
2018-09-13T07:10:35.563Z,28.27
2018-09-13T07:13:04.085Z,30.73
2018-09-13T07:15:32.722Z,32.03
2018-09-13T07:18:01.316Z,29.73
2018-09-13T07:20:30.051Z,28.73
2018-09-13T07:22:58.723Z,30.97
2018-09-13T07:25:27.365Z,27.77
2018-09-13T07:27:56.269Z,29.13
2018-09-13T07:30:24.779Z,50.90
2018-09-13T07:32:53.262Z,31.20
2018-09-13T07:35:21.903Z,30.70
2018-09-13T07:37:50.397Z,33.40
2018-09-13T07:40:19.032Z,32.00
2018-09-13T07:42:48.266Z,31.30
2018-09-13T07:45:16.828Z,30.70
2018-09-13T07:47:45.342Z,29.50
2018-09-13T07:50:14.253Z,32.90
2018-09-13T07:52:42.780Z,31.23
2018-09-13T07:55:11.341Z,34.03
2018-09-13T07:57:39.777Z,31.23
2018-09-13T08:00:08.593Z,33.07
2018-09-13T08:02:37.188Z,33.83
2018-09-13T08:05:06.961Z,33.70
2018-09-13T08:07:35.407Z,36.03
2018-09-13T08:10:04.033Z,36.17
2018-09-13T08:12:33.498Z,35.93
2018-09-13T08:15:02.026Z,34.97
2018-09-13T08:17:30.553Z,36.40
2018-09-13T08:19:59.054Z,35.40
2018-09-13T08:22:27.790Z,37.40
2018-09-13T08:24:56.295Z,35.90
2018-09-13T08:27:24.830Z,36.13
2018-09-13T08:29:53.577Z,37.00
2018-09-13T08:32:22.142Z,34.20
2018-09-13T08:34:50.763Z,32.90
2018-09-13T08:37:19.195Z,32.40
2018-09-13T08:39:47.960Z,32.50
2018-09-13T08:42:17.682Z,32.67
2018-09-13T08:44:47.199Z,34.20
2018-09-13T08:47:16.111Z,33.47
2018-09-13T08:49:45.016Z,35.07
2018-09-13T08:52:13.665Z,33.37
2018-09-13T08:54:42.146Z,33.67
2018-09-13T08:57:10.807Z,33.43
2018-09-13T08:59:39.336Z,35.17
2018-09-13T09:02:07.947Z,36.47
2018-09-13T09:04:36.660Z,37.90
2018-09-13T09:07:06.236Z,37.97
2018-09-13T09:09:34.824Z,39.40
2018-09-13T09:12:03.491Z,41.07
2018-09-13T09:14:32.021Z,42.30
2018-09-13T09:17:00.548Z,42.03
2018-09-13T09:19:29.008Z,40.90
2018-09-13T09:21:57.466Z,41.03
2018-09-13T09:24:26.830Z,39.87
2018-09-13T09:26:55.532Z,43.57
2018-09-13T09:29:24.173Z,46.67
2018-09-13T09:31:52.657Z,47.00
2018-09-13T09:34:21.224Z,44.37
2018-09-13T09:36:49.888Z,44.53
2018-09-13T09:39:18.595Z,43.03
2018-09-13T09:41:47.369Z,42.30
2018-09-13T09:44:16.137Z,42.20
2018-09-13T09:46:44.915Z,44.33
2018-09-13T09:49:13.382Z,47.00
2018-09-13T09:51:41.930Z,47.03
2018-09-13T09:54:10.388Z,49.57
2018-09-13T09:56:38.940Z,51.27
2018-09-13T09:59:07.677Z,52.20
2018-09-13T10:01:40.409Z,53.70
2018-09-13T10:04:08.895Z,52.93
2018-09-13T10:06:37.440Z,53.47
2018-09-13T10:09:08.129Z,52.83
2018-09-13T10:11:36.600Z,52.07
2018-09-13T10:14:05.406Z,51.53
2018-09-13T10:16:39.061Z,51.07
2018-09-13T10:19:13.030Z,47.97
2018-09-13T10:21:46.777Z,47.93
2018-09-13T10:24:20.509Z,47.90
2018-09-13T10:26:54.372Z,46.37
2018-09-13T10:29:28.198Z,47.23
2018-09-13T10:32:01.825Z,49.30
2018-09-13T10:34:35.875Z,46.50
2018-09-13T10:37:09.802Z,46.90
2018-09-13T10:39:43.580Z,47.60
2018-09-13T10:42:17.233Z,46.03
2018-09-13T10:44:51.186Z,41.13
2018-09-13T10:47:25.306Z,36.60
2018-09-13T10:49:59.377Z,34.13
2018-09-13T10:52:31.031Z,32.05
2018-09-13T10:54:59.611Z,27.87
2018-09-13T10:57:33.848Z,23.47
2018-09-13T11:00:02.398Z,24.30
2018-09-13T11:02:30.858Z,22.10
2018-09-13T11:04:59.441Z,20.77
2018-09-13T11:07:27.932Z,21.70
2018-09-13T11:09:56.885Z,21.43
2018-09-13T11:12:31.439Z,21.65
2018-09-13T11:15:04.084Z,21.90
2018-09-13T11:17:33.069Z,16.60
2018-09-13T11:20:01.501Z,14.95
2018-09-13T11:22:30.344Z,13.25
2018-09-13T11:24:58.981Z,12.25
2018-09-13T11:27:27.573Z,8.83
2018-09-13T11:29:56.061Z,8.83
2018-09-13T11:32:25.576Z,9.63
2018-09-13T11:34:54.310Z,8.10
2018-09-13T11:37:23.207Z,7.80
2018-09-13T11:39:51.705Z,6.87
2018-09-13T11:42:20.426Z,6.00
2018-09-13T11:44:49.318Z,5.55
2018-09-13T11:47:17.949Z,5.87
2018-09-13T11:49:46.490Z,6.03
2018-09-13T11:52:15.057Z,5.37
2018-09-13T11:54:43.616Z,5.30
2018-09-13T11:57:12.242Z,5.50
2018-09-13T11:59:40.791Z,5.50
2018-09-13T12:02:09.422Z,5.10
2018-09-13T12:04:38.729Z,5.80
2018-09-13T12:07:07.201Z,5.08
2018-09-13T12:09:35.904Z,4.80
2018-09-13T12:12:04.260Z,4.70
2018-09-13T12:14:33.177Z,3.90
2018-09-13T12:17:01.671Z,3.47
2018-09-13T12:19:30.453Z,4.15
2018-09-13T12:21:59.029Z,4.12
2018-09-13T12:24:28.093Z,4.08
2018-09-13T12:26:57.760Z,3.12
2018-09-13T12:29:26.530Z,3.00
2018-09-13T12:31:55.231Z,3.15
2018-09-13T12:34:23.972Z,2.62
2018-09-13T12:36:53.612Z,2.87
2018-09-13T12:39:22.406Z,2.60
2018-09-13T12:41:51.405Z,4.20
2018-09-13T12:44:19.944Z,4.25
2018-09-13T12:46:48.709Z,4.25
2018-09-13T12:49:17.351Z,4.58
2018-09-13T12:51:45.778Z,4.50
2018-09-13T12:54:14.337Z,4.33
2018-09-13T12:56:42.867Z,4.08
2018-09-13T12:59:11.338Z,4.65
2018-09-13T13:01:40.117Z,4.60
2018-09-13T13:04:08.564Z,4.42
2018-09-13T13:06:37.236Z,3.95
2018-09-13T13:09:08.250Z,4.30
2018-09-13T13:11:36.876Z,4.08
2018-09-13T13:14:05.438Z,3.90
2018-09-13T13:16:34.487Z,3.83
2018-09-13T13:19:02.852Z,4.47
2018-09-13T13:21:31.596Z,4.22
2018-09-13T13:24:00.069Z,4.08
2018-09-13T13:26:28.708Z,4.05
2018-09-13T13:28:57.804Z,4.25
2018-09-13T13:31:26.342Z,4.40
2018-09-13T13:33:54.839Z,4.65
2018-09-13T13:36:23.599Z,5.03
2018-09-13T13:38:52.055Z,4.42
2018-09-13T13:41:20.580Z,5.10
2018-09-13T13:43:49.152Z,4.50
2018-09-13T13:46:17.580Z,4.50
2018-09-13T13:48:46.437Z,3.83
2018-09-13T13:51:15.056Z,3.33
2018-09-13T13:53:43.887Z,3.30
2018-09-13T13:56:12.529Z,3.37
2018-09-13T13:58:42.369Z,2.95
2018-09-13T14:01:10.948Z,3.10
2018-09-13T14:03:39.637Z,2.87
2018-09-13T14:06:08.971Z,2.75
2018-09-13T14:08:37.493Z,4.03
2018-09-13T14:11:06.315Z,2.98
2018-09-13T14:13:35.426Z,3.42
2018-09-13T14:16:04.114Z,3.33
2018-09-13T14:18:32.829Z,3.60
2018-09-13T14:21:01.314Z,2.90
2018-09-13T14:23:29.873Z,2.62
2018-09-13T14:25:58.625Z,2.92
2018-09-13T14:28:27.932Z,2.90
2018-09-13T14:30:56.453Z,2.80
2018-09-13T14:33:25.291Z,2.37
2018-09-13T14:35:54.032Z,2.65
2018-09-13T14:38:22.972Z,2.90
2018-09-13T14:40:51.485Z,2.87
2018-09-13T14:43:20.095Z,2.27
2018-09-13T14:45:48.637Z,2.90
2018-09-13T14:48:17.345Z,2.35
2018-09-13T14:50:45.900Z,2.42
2018-09-13T14:53:14.411Z,2.50
2018-09-13T14:55:43.680Z,2.77
2018-09-13T14:58:12.362Z,2.42
2018-09-13T15:00:41.027Z,2.30
2018-09-13T15:03:09.658Z,2.00
2018-09-13T15:05:38.340Z,1.85
2018-09-13T15:08:07.054Z,2.55
2018-09-13T15:10:35.568Z,2.00
2018-09-13T15:13:04.941Z,2.10
2018-09-13T15:15:34.166Z,2.40
2018-09-13T15:18:02.713Z,2.30
2018-09-13T15:20:31.224Z,2.15
2018-09-13T15:23:00.345Z,1.50
2018-09-13T15:25:28.903Z,1.50
2018-09-13T15:27:57.369Z,1.65
2018-09-13T15:30:25.895Z,1.83
2018-09-13T15:32:54.394Z,1.30
2018-09-13T15:35:22.996Z,1.50
2018-09-13T15:37:58.632Z,2.20
2018-09-13T15:40:27.158Z,1.82
2018-09-13T15:42:55.793Z,1.98
2018-09-13T15:45:24.310Z,1.73
2018-09-13T15:47:52.909Z,1.92
2018-09-13T15:50:21.391Z,1.40
2018-09-13T15:52:49.998Z,1.50
2018-09-13T15:55:19.349Z,1.67
2018-09-13T15:57:47.969Z,2.45
2018-09-13T16:00:16.554Z,1.82
2018-09-13T16:02:45.105Z,2.05
2018-09-13T16:05:13.617Z,2.12
2018-09-13T16:07:42.365Z,1.50
2018-09-13T16:10:10.873Z,1.70
2018-09-13T16:12:39.526Z,1.42
2018-09-13T16:15:07.935Z,1.40
2018-09-13T16:17:36.586Z,1.70
2018-09-13T16:20:05.492Z,1.50
2018-09-13T16:22:34.109Z,1.82
2018-09-13T16:25:02.689Z,1.80
2018-09-13T16:27:31.236Z,1.55
2018-09-13T16:30:00.717Z,1.35
2018-09-13T16:32:29.343Z,1.35
2018-09-13T16:34:59.729Z,2.05
2018-09-13T16:37:33.991Z,1.62
2018-09-13T16:41:08.450Z,1.98
2018-09-13T16:43:42.562Z,1.70
2018-09-13T16:46:17.832Z,2.55
2018-09-13T16:48:46.399Z,1.70
2018-09-13T16:51:15.005Z,2.27
2018-09-13T16:53:43.637Z,1.42
2018-09-13T16:56:12.329Z,1.67
2018-09-13T16:58:40.842Z,1.90
2018-09-13T17:01:09.419Z,1.77
2018-09-13T17:03:37.908Z,1.60
2018-09-13T17:06:06.766Z,1.90
2018-09-13T17:08:38.252Z,1.32
2018-09-13T17:11:06.879Z,1.47
2018-09-13T17:13:35.826Z,1.85
2018-09-13T17:16:04.366Z,2.27
2018-09-13T17:18:32.924Z,1.35
2018-09-13T17:21:01.512Z,1.60
2018-09-13T17:26:26.397Z,1.30
2018-09-13T17:28:54.877Z,1.40
2018-09-13T17:31:24.578Z,1.57
2018-09-13T17:33:53.247Z,2.00
2018-09-13T17:36:21.720Z,1.57
2018-09-13T17:38:50.569Z,1.42
2018-09-13T17:41:19.246Z,1.60
2018-09-13T17:43:47.952Z,1.62
2018-09-13T17:46:16.931Z,1.82
2018-09-13T17:48:45.683Z,1.90
2018-09-13T17:51:14.671Z,1.77
2018-09-13T17:53:47.714Z,2.02
2018-09-13T17:56:16.678Z,2.05
2018-09-13T17:58:45.740Z,2.20
2018-09-13T18:01:14.426Z,1.80
2018-09-13T18:03:43.441Z,2.27
2018-09-13T18:06:12.071Z,1.50
2018-09-13T18:08:40.900Z,2.00
2018-09-13T18:11:09.524Z,1.80
2018-09-13T18:13:38.651Z,1.90
2018-09-13T18:16:07.286Z,2.52
2018-09-13T18:18:36.157Z,2.17
2018-09-13T18:21:11.377Z,2.30
2018-09-13T18:23:40.239Z,2.30
2018-09-13T18:26:08.942Z,2.50
2018-09-13T18:28:38.283Z,2.13
2018-09-13T18:31:09.180Z,2.40
2018-09-13T18:33:37.975Z,2.30
2018-09-13T18:36:06.796Z,2.30
2018-09-13T18:38:36.331Z,2.13
2018-09-13T18:41:05.388Z,2.00
2018-09-13T18:43:34.018Z,4.08
2018-09-13T18:46:03.495Z,5.93
2018-09-13T18:48:32.208Z,3.40
2018-09-13T18:51:00.754Z,3.33
2018-09-13T18:53:29.616Z,2.77
2018-09-13T18:56:00.232Z,2.37
2018-09-13T18:58:35.562Z,2.37
2018-09-13T19:01:09.507Z,2.23
2018-09-13T19:03:40.195Z,3.40
2018-09-13T19:06:12.972Z,2.43
2018-09-13T19:08:41.676Z,2.90
2018-09-13T19:11:11.986Z,3.30
2018-09-13T19:13:42.431Z,2.40
2018-09-13T19:16:12.914Z,2.77
2018-09-13T19:18:43.158Z,2.87
2018-09-13T19:21:12.455Z,2.80
2018-09-13T19:23:41.403Z,2.67
2018-09-13T19:26:10.050Z,2.70
2018-09-13T19:28:39.786Z,2.70
2018-09-13T19:31:08.978Z,2.40
2018-09-13T19:33:38.455Z,2.80
2018-09-13T19:36:15.478Z,2.27
2018-09-13T19:38:49.447Z,2.40
2018-09-13T19:41:20.704Z,3.73
2018-09-13T19:43:51.006Z,2.60
2018-09-13T19:46:20.080Z,2.70
2018-09-13T19:48:48.938Z,3.73
2018-09-13T19:51:17.917Z,2.60
2018-09-13T19:53:46.709Z,3.23
2018-09-13T19:56:15.430Z,2.33
2018-09-13T19:58:51.082Z,2.20
2018-09-13T20:01:19.779Z,2.20
2018-09-13T20:03:49.011Z,2.60
2018-09-13T20:06:17.998Z,3.20
2018-09-13T20:08:46.913Z,3.43
2018-09-13T20:11:15.952Z,3.20
2018-09-13T20:13:45.701Z,2.77
2018-09-13T20:16:14.563Z,2.57
2018-09-13T20:18:44.248Z,2.60
2018-09-13T20:21:13.138Z,2.40
2018-09-13T20:23:41.875Z,1.87
2018-09-13T20:26:10.798Z,42.27
2018-09-13T20:28:39.378Z,3.27
2018-09-13T20:31:10.110Z,31.23
2018-09-13T20:33:39.111Z,28.13
2018-09-13T20:36:07.623Z,2.70
2018-09-13T20:38:36.572Z,2.47
2018-09-13T20:41:05.533Z,3.33
2018-09-13T20:43:38.375Z,2.57
2018-09-13T20:46:07.240Z,2.30
2018-09-13T20:48:35.721Z,2.53
2018-09-13T20:51:04.831Z,2.27
2018-09-13T20:53:33.673Z,2.13
2018-09-13T20:56:02.295Z,2.50
2018-09-13T20:58:30.985Z,2.10
2018-09-13T21:00:59.697Z,1.93
2018-09-13T21:03:28.452Z,2.50
2018-09-13T21:05:57.231Z,2.10
2018-09-13T21:08:25.957Z,2.10
2018-09-13T21:10:54.868Z,2.17
2018-09-13T21:13:24.245Z,2.00
2018-09-13T21:15:52.979Z,2.10
2018-09-13T21:18:21.601Z,1.93
2018-09-13T21:20:50.603Z,2.03
2018-09-13T21:23:19.083Z,2.30
2018-09-13T21:25:47.944Z,2.27
2018-09-13T21:28:16.878Z,1.97
2018-09-13T21:30:45.729Z,2.53
2018-09-13T21:33:14.794Z,1.87
2018-09-13T21:35:43.845Z,2.30
2018-09-13T21:38:13.036Z,2.13
2018-09-13T21:40:41.839Z,2.73
2018-09-13T21:43:11.209Z,2.57
2018-09-13T21:45:39.721Z,2.13
2018-09-13T21:48:09.035Z,2.40
2018-09-13T21:50:37.552Z,2.77
2018-09-13T21:53:06.767Z,2.80
2018-09-13T21:55:35.563Z,2.23
2018-09-13T21:58:04.269Z,2.27
2018-09-13T22:00:33.948Z,2.33
2018-09-13T22:03:03.023Z,3.00
2018-09-13T22:05:32.329Z,2.63
2018-09-13T22:08:01.292Z,2.40
2018-09-13T22:10:30.454Z,2.43
2018-09-13T22:12:59.561Z,2.50
2018-09-13T22:15:28.418Z,2.50
2018-09-13T22:17:57.122Z,2.40
2018-09-13T22:20:25.746Z,2.20
2018-09-13T22:22:54.456Z,2.83
2018-09-13T22:25:22.885Z,2.60
2018-09-13T22:27:51.496Z,2.97
2018-09-13T22:30:19.993Z,3.00
2018-09-13T22:32:49.889Z,2.83
2018-09-13T22:35:19.285Z,2.87
2018-09-13T22:37:47.803Z,2.90
2018-09-13T22:40:16.363Z,2.67
2018-09-13T22:42:44.975Z,2.47
2018-09-13T22:45:13.461Z,2.90
2018-09-13T22:47:41.973Z,3.20
2018-09-13T22:50:10.528Z,2.97
2018-09-13T22:52:39.051Z,2.93
2018-09-13T22:55:07.734Z,2.80
2018-09-13T22:57:36.198Z,3.10
2018-09-13T23:00:05.642Z,2.87
2018-09-13T23:02:39.449Z,2.63
2018-09-13T23:05:08.110Z,2.60
2018-09-13T23:07:36.665Z,3.40
2018-09-13T23:10:05.943Z,3.13
2018-09-13T23:12:34.454Z,3.20
2018-09-13T23:15:03.037Z,3.70
2018-09-13T23:17:31.676Z,3.60
2018-09-13T23:20:00.205Z,4.23
2018-09-13T23:22:28.778Z,4.20
2018-09-13T23:24:57.276Z,4.00
2018-09-13T23:27:25.965Z,4.63
2018-09-13T23:29:55.208Z,4.17
2018-09-13T23:32:23.738Z,3.70
2018-09-13T23:34:52.482Z,3.33
2018-09-13T23:37:21.632Z,3.80
2018-09-13T23:39:50.321Z,3.87
2018-09-13T23:42:18.896Z,3.57
2018-09-13T23:44:47.992Z,3.77
2018-09-13T23:47:17.095Z,3.17
2018-09-13T23:49:45.520Z,3.60
2018-09-13T23:52:14.111Z,3.63
2018-09-13T23:54:42.781Z,3.80
2018-09-13T23:57:11.313Z,3.57
2018-09-13T23:59:39.920Z,3.80
